createdAt,value
2023-05-14T00:00:22.104Z,11.70
2023-05-14T00:02:52.000Z,11.70
2023-05-14T00:05:20.274Z,11.80
2023-05-14T00:07:48.273Z,11.90
2023-05-14T00:10:17.889Z,11.90
2023-05-14T00:12:46.180Z,12.00
2023-05-14T00:15:14.401Z,12.20
2023-05-14T00:17:42.750Z,12.20
2023-05-14T00:20:13.393Z,12.10
2023-05-14T00:22:41.589Z,11.80
2023-05-14T00:25:10.532Z,11.80
2023-05-14T00:27:38.836Z,11.80
2023-05-14T00:30:07.909Z,11.80
2023-05-14T00:32:36.162Z,12.00
2023-05-14T00:35:04.532Z,11.90
2023-05-14T00:37:33.782Z,11.80
2023-05-14T00:40:01.678Z,11.60
2023-05-14T00:42:29.770Z,11.50
2023-05-14T00:44:57.703Z,11.50
2023-05-14T00:47:25.948Z,11.50
2023-05-14T00:49:54.457Z,11.40
2023-05-14T00:52:23.003Z,11.40
2023-05-14T00:54:52.960Z,11.50
2023-05-14T00:57:21.667Z,11.50
2023-05-14T00:59:50.201Z,11.50
2023-05-14T01:02:18.416Z,11.20
2023-05-14T01:04:46.604Z,11.20
2023-05-14T01:07:21.892Z,11.00
2023-05-14T01:09:56.944Z,10.90
2023-05-14T01:12:34.741Z,10.90
2023-05-14T01:15:11.874Z,10.90
2023-05-14T01:17:47.341Z,10.90
2023-05-14T01:20:16.409Z,10.80
2023-05-14T01:22:45.882Z,10.80
2023-05-14T01:25:14.022Z,10.80
2023-05-14T01:27:48.498Z,10.80
2023-05-14T01:30:23.029Z,10.70
2023-05-14T01:32:55.718Z,10.70
2023-05-14T01:35:27.546Z,10.60
2023-05-14T01:38:00.667Z,10.60
2023-05-14T01:40:29.216Z,10.60
2023-05-14T01:42:57.846Z,10.60
2023-05-14T01:45:26.201Z,10.70
2023-05-14T01:47:55.828Z,10.80
2023-05-14T01:50:24.577Z,10.70
2023-05-14T01:52:56.397Z,10.80
2023-05-14T01:55:26.697Z,10.70
2023-05-14T01:57:55.118Z,10.60
2023-05-14T02:00:25.367Z,10.50
2023-05-14T02:02:54.045Z,10.60
2023-05-14T02:05:22.545Z,10.50
2023-05-14T02:07:51.414Z,10.60
2023-05-14T02:10:19.742Z,10.60
2023-05-14T02:12:49.210Z,10.50
2023-05-14T02:15:17.190Z,10.50
2023-05-14T02:17:45.732Z,10.50
2023-05-14T02:20:14.500Z,10.60
2023-05-14T02:22:45.709Z,10.50
2023-05-14T02:25:13.888Z,10.50
2023-05-14T02:27:41.956Z,10.40
2023-05-14T02:30:12.949Z,10.60
2023-05-14T02:32:41.122Z,10.60
2023-05-14T02:35:10.195Z,10.60
2023-05-14T02:37:39.173Z,10.70
2023-05-14T02:40:08.525Z,10.70
2023-05-14T02:42:36.533Z,10.70
2023-05-14T02:45:04.971Z,10.60
2023-05-14T02:47:37.530Z,10.40
2023-05-14T02:50:07.200Z,10.30
2023-05-14T02:52:35.386Z,10.20
2023-05-14T02:55:05.067Z,10.10
2023-05-14T02:57:33.255Z,10.00
2023-05-14T03:00:01.669Z,10.00
2023-05-14T03:02:30.345Z,10.10
2023-05-14T03:05:00.215Z,10.10
2023-05-14T03:07:28.294Z,10.10
2023-05-14T03:09:56.589Z,10.10
2023-05-14T03:12:24.656Z,10.30
2023-05-14T03:14:52.688Z,10.40
2023-05-14T03:17:21.283Z,10.40
2023-05-14T03:19:49.450Z,10.50
2023-05-14T03:22:19.294Z,10.50
2023-05-14T03:24:47.312Z,10.60
2023-05-14T03:27:15.321Z,10.60
2023-05-14T03:29:43.541Z,10.60
2023-05-14T03:32:11.568Z,10.50
2023-05-14T03:34:39.946Z,10.50
2023-05-14T03:37:07.904Z,10.50
2023-05-14T03:39:37.804Z,10.50
2023-05-14T03:42:06.524Z,10.40
2023-05-14T03:44:34.618Z,10.30
2023-05-14T03:47:02.700Z,10.40
2023-05-14T03:49:30.989Z,10.30
2023-05-14T03:51:59.385Z,10.20
2023-05-14T03:54:27.538Z,10.30
2023-05-14T03:56:57.023Z,10.30
2023-05-14T03:59:25.376Z,10.20
2023-05-14T04:01:53.381Z,10.30
2023-05-14T04:04:21.509Z,10.40
2023-05-14T04:06:49.839Z,10.20
2023-05-14T04:09:18.288Z,10.30
2023-05-14T04:11:46.256Z,10.20
2023-05-14T04:14:15.731Z,10.20
2023-05-14T04:16:43.752Z,10.40
2023-05-14T04:19:12.391Z,10.30
2023-05-14T04:21:40.491Z,10.40
2023-05-14T04:24:09.336Z,10.30
2023-05-14T04:26:37.331Z,10.30
2023-05-14T04:29:05.500Z,10.30
2023-05-14T04:31:35.244Z,10.40
2023-05-14T04:34:03.328Z,10.40
2023-05-14T04:36:31.705Z,10.40
2023-05-14T04:38:59.737Z,10.40
2023-05-14T04:41:27.732Z,10.40
2023-05-14T04:43:57.727Z,10.40
2023-05-14T04:46:25.737Z,10.50
2023-05-14T04:48:55.313Z,10.60
2023-05-14T04:51:23.390Z,10.60
2023-05-14T04:56:17.471Z,10.80
2023-05-14T04:58:45.527Z,10.90
2023-05-14T05:01:13.605Z,11.10
2023-05-14T05:03:41.862Z,11.30
2023-05-14T05:06:11.360Z,11.40
2023-05-14T05:08:39.808Z,11.70
2023-05-14T05:11:07.952Z,11.90
2023-05-14T05:13:36.255Z,12.30
2023-05-14T05:16:04.814Z,12.30
2023-05-14T05:18:33.095Z,12.40
2023-05-14T05:21:01.288Z,12.60
2023-05-14T05:23:30.692Z,12.70
2023-05-14T05:25:58.663Z,12.70
2023-05-14T05:28:26.791Z,12.70
2023-05-14T05:30:55.121Z,12.80
2023-05-14T05:33:23.395Z,12.70
2023-05-14T05:35:52.553Z,12.80
2023-05-14T05:38:20.720Z,12.80
2023-05-14T05:40:50.469Z,12.90
2023-05-14T05:43:19.034Z,13.10
2023-05-14T05:45:47.005Z,13.20
2023-05-14T05:48:15.164Z,13.40
2023-05-14T05:50:44.742Z,13.40
2023-05-14T05:53:12.916Z,13.50
2023-05-14T05:55:42.119Z,13.50
2023-05-14T05:58:11.794Z,13.40
2023-05-14T06:00:39.802Z,13.50
2023-05-14T06:03:07.915Z,13.60
2023-05-14T06:05:36.198Z,13.60
2023-05-14T06:08:04.570Z,13.70
2023-05-14T06:10:33.051Z,13.80
2023-05-14T06:13:01.307Z,13.80
2023-05-14T06:15:30.874Z,13.80
2023-05-14T06:17:59.248Z,13.80
2023-05-14T06:20:27.307Z,13.90
2023-05-14T06:22:55.507Z,13.90
2023-05-14T06:25:23.633Z,14.00
2023-05-14T06:27:51.764Z,14.10
2023-05-14T06:30:20.262Z,14.20
2023-05-14T06:32:50.507Z,14.30
2023-05-14T06:35:19.060Z,14.30
2023-05-14T06:37:47.151Z,14.10
2023-05-14T06:40:16.545Z,14.00
2023-05-14T06:42:44.941Z,13.90
2023-05-14T06:45:13.294Z,13.90
2023-05-14T06:47:41.464Z,14.10
2023-05-14T06:50:12.314Z,14.30
2023-05-14T06:52:40.358Z,14.40
2023-05-14T06:55:09.236Z,14.50
2023-05-14T06:57:38.629Z,14.50
2023-05-14T07:00:10.022Z,14.80
2023-05-14T07:02:38.500Z,14.80
2023-05-14T07:05:08.801Z,14.90
2023-05-14T07:07:38.217Z,15.10
2023-05-14T07:10:08.323Z,15.10
2023-05-14T07:12:36.649Z,15.10
2023-05-14T07:15:05.805Z,15.20
2023-05-14T07:17:34.039Z,15.20
2023-05-14T07:20:01.945Z,15.50
2023-05-14T07:22:30.072Z,15.60
2023-05-14T07:24:59.519Z,15.80
2023-05-14T07:27:27.593Z,15.90
2023-05-14T07:29:55.473Z,16.00
2023-05-14T07:32:25.059Z,16.00
2023-05-14T07:34:53.202Z,16.00
2023-05-14T07:37:24.176Z,16.30
2023-05-14T07:39:53.945Z,16.60
2023-05-14T07:42:35.247Z,16.80
2023-05-14T07:45:04.385Z,16.80
2023-05-14T07:47:32.825Z,16.70
2023-05-14T07:50:01.065Z,16.60
2023-05-14T07:52:29.088Z,16.30
2023-05-14T07:54:57.199Z,16.30
2023-05-14T07:57:26.662Z,16.50
2023-05-14T07:59:54.707Z,16.70
2023-05-14T08:02:23.418Z,16.60
2023-05-14T08:04:51.742Z,16.40
2023-05-14T08:07:20.400Z,16.40
2023-05-14T08:09:48.351Z,16.30
2023-05-14T08:12:17.115Z,16.30
2023-05-14T08:14:46.802Z,16.50
2023-05-14T08:17:15.050Z,16.60
2023-05-14T08:19:43.093Z,16.50
2023-05-14T08:22:11.061Z,16.30
2023-05-14T08:24:39.085Z,16.40
2023-05-14T08:27:08.066Z,16.60
2023-05-14T08:29:36.070Z,16.70
2023-05-14T08:32:19.382Z,16.80
2023-05-14T08:34:51.728Z,17.00
2023-05-14T08:37:20.407Z,17.10
2023-05-14T08:39:48.426Z,17.20
2023-05-14T08:42:21.762Z,17.70
2023-05-14T08:44:51.401Z,17.80
2023-05-14T08:47:23.373Z,17.50
2023-05-14T08:49:55.823Z,17.70
2023-05-14T08:52:24.106Z,17.70
2023-05-14T08:54:54.143Z,17.80
2023-05-14T08:57:25.017Z,17.50
2023-05-14T08:59:53.039Z,17.60
2023-05-14T09:02:25.722Z,17.20
2023-05-14T09:04:57.419Z,17.30
2023-05-14T09:07:25.794Z,17.50
2023-05-14T09:09:54.696Z,17.20
2023-05-14T09:12:23.191Z,17.30
2023-05-14T09:14:52.545Z,17.60
2023-05-14T09:17:22.465Z,17.70
2023-05-14T09:19:53.031Z,17.70
2023-05-14T09:22:21.729Z,17.60
2023-05-14T09:25:03.938Z,17.40
2023-05-14T09:27:33.124Z,17.50
2023-05-14T09:30:09.520Z,17.40
2023-05-14T09:32:40.555Z,17.30
2023-05-14T09:35:14.606Z,17.50
2023-05-14T09:37:44.016Z,17.60
2023-05-14T09:40:14.395Z,17.90
2023-05-14T09:42:42.778Z,18.00
2023-05-14T09:45:11.691Z,18.00
2023-05-14T09:47:41.261Z,18.20
2023-05-14T09:50:10.448Z,18.30
2023-05-14T09:52:39.377Z,18.40
2023-05-14T09:55:08.477Z,18.60
2023-05-14T09:57:36.862Z,18.70
2023-05-14T10:00:05.794Z,18.50
2023-05-14T10:02:39.432Z,18.30
2023-05-14T10:05:11.029Z,18.20
2023-05-14T10:07:43.621Z,18.10
2023-05-14T10:10:16.463Z,18.50
2023-05-14T10:12:50.022Z,19.00
2023-05-14T10:15:22.223Z,19.30
2023-05-14T10:17:54.153Z,19.40
2023-05-14T10:20:26.770Z,19.10
2023-05-14T10:22:55.348Z,19.30
2023-05-14T10:25:24.372Z,19.20
2023-05-14T10:27:54.678Z,18.90
2023-05-14T10:30:23.960Z,19.00
2023-05-14T10:33:07.567Z,18.80
2023-05-14T10:36:00.903Z,19.00
2023-05-14T10:38:32.098Z,18.90
2023-05-14T10:41:05.216Z,18.90
2023-05-14T10:43:38.450Z,18.90
2023-05-14T10:46:07.973Z,19.00
2023-05-14T10:48:37.785Z,18.90
2023-05-14T10:51:09.662Z,19.10
2023-05-14T10:53:39.126Z,19.10
2023-05-14T10:56:12.314Z,19.60
2023-05-14T10:58:41.624Z,19.80
2023-05-14T11:01:11.977Z,20.00
2023-05-14T11:03:45.021Z,20.00
2023-05-14T11:06:16.959Z,20.00
2023-05-14T11:08:47.144Z,20.10
2023-05-14T11:11:15.650Z,19.60
2023-05-14T11:13:44.687Z,19.60
2023-05-14T11:16:22.530Z,19.20
2023-05-14T11:18:55.808Z,19.10
2023-05-14T11:21:25.374Z,19.30
2023-05-14T11:23:53.293Z,19.70
2023-05-14T11:26:21.898Z,19.60
2023-05-14T11:28:50.351Z,19.60
2023-05-14T11:31:19.022Z,19.80
2023-05-14T11:33:47.204Z,19.90
2023-05-14T11:36:15.534Z,19.90
2023-05-14T11:38:52.927Z,19.90
2023-05-14T11:41:23.115Z,20.00
2023-05-14T11:43:51.628Z,20.10
2023-05-14T11:46:19.784Z,19.90
2023-05-14T11:48:48.214Z,19.90
2023-05-14T11:51:16.203Z,20.00
2023-05-14T11:53:44.149Z,20.10
2023-05-14T11:56:13.745Z,19.90
2023-05-14T11:58:44.882Z,19.90
2023-05-14T12:01:14.939Z,20.10
2023-05-14T12:03:43.213Z,20.20
2023-05-14T12:06:11.542Z,20.20
2023-05-14T12:08:39.525Z,19.90
2023-05-14T12:11:07.675Z,19.70
2023-05-14T12:13:38.185Z,19.80
2023-05-14T12:16:06.469Z,20.10
2023-05-14T12:18:35.306Z,19.90
2023-05-14T12:21:04.358Z,20.60
2023-05-14T12:23:33.258Z,21.00
2023-05-14T12:26:05.964Z,20.90
2023-05-14T12:28:36.862Z,20.50
2023-05-14T12:31:07.605Z,20.10
2023-05-14T12:33:35.572Z,20.50
2023-05-14T12:38:35.019Z,20.20
2023-05-14T12:41:05.564Z,19.40
2023-05-14T12:43:33.589Z,19.00
2023-05-14T12:46:01.631Z,19.30
2023-05-14T12:48:31.063Z,19.30
2023-05-14T12:50:59.228Z,19.60
2023-05-14T12:53:27.353Z,19.80
2023-05-14T12:55:56.259Z,20.20
2023-05-14T12:58:24.265Z,21.10
2023-05-14T13:00:52.498Z,20.50
2023-05-14T13:03:21.282Z,20.40
2023-05-14T13:05:52.117Z,20.10
2023-05-14T13:08:21.492Z,20.10
2023-05-14T13:10:50.599Z,20.50
2023-05-14T13:13:18.606Z,20.90
2023-05-14T13:15:48.906Z,21.20
2023-05-14T13:18:17.656Z,21.60
2023-05-14T13:20:48.811Z,22.10
2023-05-14T13:23:19.293Z,22.10
2023-05-14T13:25:49.762Z,22.20
2023-05-14T13:28:17.992Z,22.10
2023-05-14T13:31:06.308Z,21.90
2023-05-14T13:33:36.741Z,22.40
2023-05-14T13:36:05.425Z,22.50
2023-05-14T13:38:35.653Z,21.90
2023-05-14T13:41:03.814Z,21.00
2023-05-14T13:43:32.085Z,20.30
2023-05-14T13:46:01.143Z,20.10
2023-05-14T13:48:29.283Z,20.10
2023-05-14T13:50:57.481Z,20.50
2023-05-14T13:53:26.343Z,21.30
2023-05-14T13:56:00.201Z,21.50
2023-05-14T13:58:29.494Z,21.70
2023-05-14T14:00:58.530Z,22.00
2023-05-14T14:03:26.510Z,22.00
2023-05-14T14:05:54.554Z,21.70
2023-05-14T14:08:24.353Z,21.10
2023-05-14T14:10:55.304Z,20.80
2023-05-14T14:13:24.841Z,20.30
2023-05-14T14:15:54.761Z,20.80
